Cartola — C6ZV8 — position and weather

sailwx.info

Track history (hours):
 
Tides and Currents Weather Stations Pressure Air Temp Water Temp Dewpoint Dewpoint Depression Visibility Wind Speed Wind Dir Waves Ship Positions

Cartola

Last reported at 2018-Apr-16 05:15 UTC. Time now 2018-Apr-22 16:10 UTC.
Position S 23°17' W 042°25'.

Length 272 m; draft 9 m.

Type: Ship. MMSI: 311067700.

Date/timePositionNaut miles runAvg speedWind from/ knotsBaromVisibWave heightAir tempDewpointWater temp
2018-Apr-16 05:15S 23°17' W 042°25'510.8
2018-Apr-16 04:48S 23°19' W 042°30'310.8
2018-Apr-16 04:29S 23°20' W 042°34'810.9
2018-Apr-16 03:46S 23°22' W 042°42'410.8
2018-Apr-16 03:26S 23°24' W 042°45'610.8
2018-Apr-16 02:54S 23°26' W 042°51'510.9
2018-Apr-16 02:29S 23°27' W 042°56'510.8
2018-Apr-16 01:59S 23°29' W 043°01'511.0
2018-Apr-16 01:30S 23°30' W 043°07'611.4
2018-Apr-16 01:00S 23°31' W 043°13'711.7
2018-Apr-16 00:24S 23°33' W 043°21'511.7
2018-Apr-15 23:59S 23°34' W 043°26'611.6
2018-Apr-15 23:28S 23°36' W 043°32'611.6
2018-Apr-15 22:55S 23°38' W 043°39'511.2
2018-Apr-15 22:30S 23°39' W 043°44'  
2018-Apr-12 08:52S 23°39' W 043°45'611.9
2018-Apr-12 08:23S 23°38' W 043°39'1011.8
2018-Apr-12 07:32S 23°35' W 043°28'111.8
2018-Apr-12 07:28S 23°35' W 043°27'611.9
2018-Apr-12 06:58S 23°33' W 043°21'712.2
2018-Apr-12 06:21S 23°31' W 043°13'812.3
2018-Apr-12 05:44S 23°30' W 043°05'  
Track history (hours):
 
Tides and Currents Weather Stations Pressure Air Temp Water Temp Dewpoint Dewpoint Depression Visibility Wind Speed Wind Dir Waves Ship Positions

Cartola

Last reported at 2018-Apr-16 05:15 UTC. Time now 2018-Apr-22 16:10 UTC.
Position S 23°17' W 042°25'.

Length 272 m; draft 9 m.

Type: Ship. MMSI: 311067700.

Date/timePositionNaut miles runAvg speedWind from/ knotsBaromVisibWave heightAir tempDewpointWater temp
2018-Apr-16 05:15S 23°17' W 042°25'510.8
2018-Apr-16 04:48S 23°19' W 042°30'310.8
2018-Apr-16 04:29S 23°20' W 042°34'810.9
2018-Apr-16 03:46S 23°22' W 042°42'410.8
2018-Apr-16 03:26S 23°24' W 042°45'610.8
2018-Apr-16 02:54S 23°26' W 042°51'510.9
2018-Apr-16 02:29S 23°27' W 042°56'510.8
2018-Apr-16 01:59S 23°29' W 043°01'511.0
2018-Apr-16 01:30S 23°30' W 043°07'611.4
2018-Apr-16 01:00S 23°31' W 043°13'711.7
2018-Apr-16 00:24S 23°33' W 043°21'511.7
2018-Apr-15 23:59S 23°34' W 043°26'611.6
2018-Apr-15 23:28S 23°36' W 043°32'611.6
2018-Apr-15 22:55S 23°38' W 043°39'511.2
2018-Apr-15 22:30S 23°39' W 043°44'  
2018-Apr-12 08:52S 23°39' W 043°45'611.9
2018-Apr-12 08:23S 23°38' W 043°39'1011.8
2018-Apr-12 07:32S 23°35' W 043°28'111.8
2018-Apr-12 07:28S 23°35' W 043°27'611.9
2018-Apr-12 06:58S 23°33' W 043°21'712.2
2018-Apr-12 06:21S 23°31' W 043°13'812.3
2018-Apr-12 05:44S 23°30' W 043°05'  

Dump ship's entire track history